Zacata, Virginia
Current Conditions -  °F | °C
As of 11:07 PM on Tuesday 25 Nov 2014 (Local Time) from K2W6 Reporting Station
Overcast Overcast  
Wind Chill: 46°   Ceiling: 11000
Heat Index: 46°   Visibility: 10mi
Dew Point: 37°   Wind: 3mph
Humidity: 71%   Direction: 20°NNE
Pressure: 30.15"   Gusts: NA
Location:  38.12°N, 76.78°W
Report Text: K2W6 260407Z AUTO 02003KT 10SM OVC110 08/03 A3015 RMK AO1
Loading
Personal Weather Stations






























Interactive Weather Map New forecast layout! Learn more

10-Day Weather Forecast

Advertisements
Track Severe Weather on mobile